Time;durP1;ratioP1;P1;durP2;ratioP2;P2;SDS_P1;SDS_P2;PMS_P1;PMS_P2;Temp;Humidity;BMP_temperature;BMP_pressure;BME280_temperature;BME280_humidity;BME280_pressure;Samples;Min_cycle;Max_cycle;Signal;HPM_P1;HPM_P2
2022/08/10 00:01:47;;;;;;;5.03;3.45;;;19.50;97.50;;;;;;5089443;28;20276;-51
2022/08/10 00:04:19;;;;;;;4.35;3.83;;;19.40;97.70;;;;;;5089901;28;20637;-51
2022/08/10 00:06:51;;;;;;;5.07;3.50;;;19.40;97.80;;;;;;5089878;28;20756;-51
2022/08/10 00:09:19;;;;;;;4.40;3.42;;;19.40;97.70;;;;;;5089669;28;20246;-51
2022/08/10 00:11:47;;;;;;;4.70;3.72;;;19.30;97.90;;;;;;5089595;28;20737;-50
2022/08/10 00:14:15;;;;;;;9.15;4.00;;;19.30;98.00;;;;;;5090355;28;20204;-51
2022/08/10 00:16:43;;;;;;;7.13;3.67;;;19.30;98.20;;;;;;5090207;28;20261;-51
2022/08/10 00:19:11;;;;;;;6.10;4.20;;;19.20;98.40;;;;;;5089694;28;20200;-51
2022/08/10 00:21:44;;;;;;;3.72;3.35;;;19.20;98.30;;;;;;5090240;28;20250;-51
2022/08/10 00:24:13;;;;;;;6.05;3.80;;;19.20;98.30;;;;;;5090718;28;20277;-51
2022/08/10 00:26:41;;;;;;;5.88;3.80;;;19.10;98.40;;;;;;5089595;28;20226;-51
2022/08/10 00:29:30;;;;;;;5.60;3.70;;;19.10;98.80;;;;;;5087907;28;20731;-51
2022/08/10 00:31:58;;;;;;;3.95;3.55;;;19.00;99.10;;;;;;5090087;28;20208;-51
2022/08/10 00:34:26;;;;;;;6.07;3.80;;;18.90;99.40;;;;;;5087850;28;20204;-51
2022/08/10 00:36:55;;;;;;;4.43;3.72;;;18.80;99.60;;;;;;5076899;28;20673;-51
2022/08/10 00:39:25;;;;;;;4.50;3.70;;;18.70;99.60;;;;;;5089243;28;20232;-51
2022/08/10 00:41:53;;;;;;;7.15;3.50;;;18.70;99.90;;;;;;5075830;28;20246;-51
2022/08/10 00:44:36;;;;;;;4.90;3.75;;;18.70;99.90;;;;;;5089693;28;20204;-51
2022/08/10 00:47:04;;;;;;;6.35;4.15;;;18.70;99.90;;;;;;5089109;28;20196;-51
2022/08/10 00:49:33;;;;;;;6.65;3.92;;;18.60;99.90;;;;;;5089560;28;20242;-51
2022/08/10 00:52:01;;;;;;;4.32;3.60;;;18.60;99.90;;;;;;5089215;28;20746;-51
2022/08/10 00:54:31;;;;;;;4.78;3.83;;;18.50;99.90;;;;;;5089211;28;20208;-51
2022/08/10 00:56:59;;;;;;;7.22;4.20;;;18.50;99.90;;;;;;5089305;28;20669;-51
2022/08/10 00:59:45;;;;;;;7.50;3.80;;;18.50;99.90;;;;;;5089289;28;20622;-51
2022/08/10 01:02:28;;;;;;;5.03;3.80;;;18.50;99.90;;;;;;5089062;28;20289;-50
2022/08/10 01:04:58;;;;;;;4.40;3.50;;;18.40;99.90;;;;;;5089618;28;20254;-51
2022/08/10 01:07:42;;;;;;;4.72;3.83;;;18.40;99.90;;;;;;5089186;28;20240;-51
2022/08/10 01:10:27;;;;;;;8.20;4.32;;;18.40;99.90;;;;;;5089027;28;20232;-51
2022/08/10 01:13:04;;;;;;;7.50;4.18;;;18.30;99.90;;;;;;5089461;28;20210;-51
2022/08/10 01:15:47;;;;;;;4.50;4.07;;;18.20;99.90;;;;;;5089231;28;20196;-51
2022/08/10 01:18:21;;;;;;;7.47;4.47;;;18.20;99.90;;;;;;5088525;28;20875;-51
2022/08/10 01:21:13;;;;;;;4.57;4.18;;;18.10;99.90;;;;;;5089450;28;20253;-51
2022/08/10 01:24:02;;;;;;;6.07;4.43;;;18.00;99.90;;;;;;5088647;28;20227;-51
2022/08/10 01:26:56;;;;;;;6.78;4.80;;;18.00;99.90;;;;;;5089282;28;20631;-51
2022/08/10 01:29:53;;;;;;;7.10;4.65;;;17.90;99.90;;;;;;5088647;28;20284;-51
2022/08/10 01:32:29;;;;;;;5.22;4.32;;;17.90;99.90;;;;;;5086051;28;20204;-51
2022/08/10 01:35:10;;;;;;;7.60;4.57;;;17.90;99.90;;;;;;5083388;28;20250;-51
2022/08/10 01:37:43;;;;;;;5.38;4.35;;;17.80;99.90;;;;;;5082407;28;20736;-51
2022/08/10 01:40:24;;;;;;;6.35;4.55;;;17.80;99.90;;;;;;5088970;28;20224;-51
2022/08/10 01:42:56;;;;;;;5.72;4.82;;;17.80;99.90;;;;;;5089150;28;20224;-51
2022/08/10 01:45:39;;;;;;;6.93;4.70;;;17.80;99.90;;;;;;5088945;28;20257;-51
2022/08/10 01:48:29;;;;;;;5.35;4.25;;;17.80;99.90;;;;;;5088708;28;20196;-51
2022/08/10 01:51:08;;;;;;;5.88;4.72;;;17.80;99.90;;;;;;5089490;28;20224;-50
2022/08/10 01:53:41;;;;;;;5.80;4.35;;;17.70;99.90;;;;;;5088870;28;20193;-50
2022/08/10 01:56:12;;;;;;;4.63;4.22;;;17.80;99.90;;;;;;5089424;28;20213;-50
2022/08/10 01:58:42;;;;;;;5.95;4.00;;;17.70;99.90;;;;;;5088280;28;20212;-51
2022/08/10 02:01:16;;;;;;;4.30;3.90;;;17.70;99.90;;;;;;5089259;28;20736;-51
2022/08/10 02:03:46;;;;;;;9.25;4.40;;;17.80;99.90;;;;;;5088431;28;20736;-51
2022/08/10 02:06:35;;;;;;;5.03;4.30;;;17.80;99.90;;;;;;5089848;28;20204;-50
2022/08/10 02:09:05;;;;;;;6.65;4.38;;;17.70;99.90;;;;;;5092116;28;20204;-51
2022/08/10 02:11:35;;;;;;;4.90;4.10;;;17.70;99.90;;;;;;5092248;28;20208;-51
2022/08/10 02:14:26;;;;;;;5.78;4.50;;;17.70;99.90;;;;;;5092602;28;20320;-50
2022/08/10 02:17:06;;;;;;;7.22;4.95;;;17.70;99.90;;;;;;5092949;28;20203;-51
2022/08/10 02:19:36;;;;;;;5.50;3.85;;;17.60;99.90;;;;;;5092395;28;20282;-51
2022/08/10 02:22:05;;;;;;;4.82;4.40;;;17.60;99.90;;;;;;5092579;28;20209;-51
2022/08/10 02:24:56;;;;;;;4.82;3.85;;;17.60;99.90;;;;;;5092079;28;20310;-50
2022/08/10 02:27:27;;;;;;;5.57;3.92;;;17.70;99.90;;;;;;5091369;28;20230;-51
2022/08/10 02:29:57;;;;;;;5.45;4.10;;;17.70;99.90;;;;;;5097756;28;20223;-51
2022/08/10 02:32:28;;;;;;;4.72;4.07;;;17.80;99.90;;;;;;5102125;28;20587;-51
2022/08/10 02:35:07;;;;;;;4.30;3.55;;;17.90;99.90;;;;;;5089789;28;20211;-51
2022/08/10 02:37:53;;;;;;;6.15;4.03;;;17.90;99.90;;;;;;5075275;28;20792;-50
2022/08/10 02:40:24;;;;;;;4.00;3.58;;;17.90;99.90;;;;;;5090684;28;20716;-51
2022/08/10 02:43:23;;;;;;;7.55;4.35;;;18.00;99.90;;;;;;5079034;28;20322;-51
2022/08/10 02:46:15;;;;;;;4.35;3.95;;;17.90;99.90;;;;;;5091768;28;20205;-50
2022/08/10 02:48:54;;;;;;;5.93;4.15;;;17.80;99.90;;;;;;5091568;28;20245;-51
2022/08/10 02:51:27;;;;;;;6.82;4.32;;;17.80;99.90;;;;;;5077255;28;20608;-51
2022/08/10 02:54:20;;;;;;;5.35;3.85;;;17.70;99.90;;;;;;5091433;28;20648;-50
2022/08/10 02:56:54;;;;;;;7.15;4.13;;;17.60;99.90;;;;;;5078539;28;20208;-51
2022/08/10 02:59:27;;;;;;;6.88;4.40;;;17.60;99.90;;;;;;5091260;28;20219;-51
2022/08/10 03:02:13;;;;;;;5.43;3.85;;;17.60;99.90;;;;;;5091596;28;20200;-51
2022/08/10 03:04:47;;;;;;;6.82;4.28;;;17.50;99.90;;;;;;5091322;28;20682;-49
2022/08/10 03:07:28;;;;;;;5.97;4.20;;;17.50;99.90;;;;;;5082226;28;20205;-51
2022/08/10 03:10:15;;;;;;;7.25;4.20;;;17.50;99.90;;;;;;5090312;28;20228;-52
2022/08/10 03:12:43;;;;;;;6.13;4.00;;;17.40;99.90;;;;;;5090977;28;20672;-51
2022/08/10 03:15:14;;;;;;;6.05;4.40;;;17.40;99.90;;;;;;5091173;28;20200;-51
2022/08/10 03:17:44;;;;;;;5.85;4.20;;;17.40;99.90;;;;;;5090897;28;20346;-51
2022/08/10 03:20:29;;;;;;;6.65;4.45;;;17.40;99.90;;;;;;5090660;28;20231;-51
2022/08/10 03:23:09;;;;;;;4.85;4.00;;;17.30;99.90;;;;;;5090921;28;20859;-52
2022/08/10 03:25:38;;;;;;;5.05;4.13;;;17.30;99.90;;;;;;5091156;28;20627;-51
2022/08/10 03:28:07;;;;;;;5.38;4.22;;;17.30;99.90;;;;;;5091023;28;20272;-51
2022/08/10 03:30:35;;;;;;;5.07;4.03;;;17.30;99.90;;;;;;5090697;28;20406;-51
2022/08/10 03:33:06;;;;;;;4.90;3.67;;;17.30;99.90;;;;;;5090784;28;20245;-51
2022/08/10 03:35:35;;;;;;;5.10;4.07;;;17.30;99.90;;;;;;5090514;28;20200;-51
2022/08/10 03:38:04;;;;;;;5.72;4.18;;;17.30;99.90;;;;;;5091204;28;20257;-51
2022/08/10 03:40:35;;;;;;;5.95;4.00;;;17.30;99.90;;;;;;5088767;28;20273;-50
2022/08/10 03:43:17;;;;;;;5.35;3.83;;;17.30;99.90;;;;;;5080191;28;20228;-52
2022/08/10 03:45:48;;;;;;;6.95;4.25;;;17.30;99.90;;;;;;5090511;28;20592;-51
2022/08/10 03:48:24;;;;;;;4.88;3.67;;;17.30;99.90;;;;;;5090423;28;20202;-51
2022/08/10 03:51:14;;;;;;;6.05;4.22;;;17.30;99.90;;;;;;5089562;28;20696;-51
2022/08/10 03:53:43;;;;;;;5.20;4.22;;;17.40;99.90;;;;;;5090365;28;20200;-51
2022/08/10 03:56:32;;;;;;;8.10;4.43;;;17.40;99.90;;;;;;5090358;28;20319;-51
2022/08/10 03:59:01;;;;;;;5.00;3.95;;;17.40;99.90;;;;;;5090519;28;20231;-51
2022/08/10 04:01:30;;;;;;;8.85;4.13;;;17.40;99.90;;;;;;5090451;28;20774;-51
2022/08/10 04:04:19;;;;;;;7.07;3.70;;;17.30;99.90;;;;;;5089999;28;20305;-51
2022/08/10 04:06:54;;;;;;;7.13;4.43;;;17.30;99.90;;;;;;5090358;28;20599;-50
2022/08/10 04:09:24;;;;;;;4.68;3.80;;;17.20;99.90;;;;;;5089823;28;20204;-51
2022/08/10 04:12:11;;;;;;;4.97;3.90;;;17.20;99.90;;;;;;5090138;28;20311;-50
2022/08/10 04:14:40;;;;;;;5.68;4.45;;;17.10;99.90;;;;;;5090204;28;20250;-50
2022/08/10 04:17:24;;;;;;;4.63;4.05;;;17.10;99.90;;;;;;5107363;28;20207;-51
2022/08/10 04:20:18;;;;;;;4.88;4.28;;;17.10;99.90;;;;;;5096867;28;20334;-51
2022/08/10 04:22:51;;;;;;;5.68;4.00;;;17.20;99.90;;;;;;5110594;28;20647;-50
2022/08/10 04:25:20;;;;;;;4.93;4.20;;;17.20;99.90;;;;;;5109674;28;20227;-51
2022/08/10 04:27:50;;;;;;;6.63;4.40;;;17.20;99.90;;;;;;5105711;28;20269;-51
2022/08/10 04:30:18;;;;;;;6.85;4.13;;;17.20;99.90;;;;;;5106571;28;20265;-50
2022/08/10 04:32:52;;;;;;;4.60;4.07;;;17.20;99.90;;;;;;5106502;28;20257;-51
2022/08/10 04:35:22;;;;;;;7.18;4.25;;;17.20;99.90;;;;;;5105719;28;20207;-51
2022/08/10 04:37:53;;;;;;;7.07;4.10;;;17.20;99.90;;;;;;5110255;28;20253;-51
2022/08/10 04:40:21;;;;;;;7.38;4.22;;;17.20;99.90;;;;;;5109853;28;20676;-51
2022/08/10 04:42:58;;;;;;;7.30;4.57;;;17.30;99.90;;;;;;5076767;28;20200;-51
2022/08/10 04:45:32;;;;;;;4.53;4.03;;;17.80;99.90;;;;;;5089487;28;20254;-51
2022/08/10 04:48:21;;;;;;;5.00;4.00;;;18.00;99.90;;;;;;5089751;28;20208;-51
2022/08/10 04:51:10;;;;;;;7.18;3.88;;;18.70;99.90;;;;;;5089461;28;20671;-51
2022/08/10 04:53:48;;;;;;;5.93;3.85;;;19.30;99.90;;;;;;5089244;28;20204;-51
2022/08/10 04:56:34;;;;;;;3.95;3.58;;;19.80;99.90;;;;;;5089868;28;20208;-51
2022/08/10 04:59:03;;;;;;;5.50;3.83;;;20.20;99.90;;;;;;5089157;28;20216;-51
2022/08/10 05:01:32;;;;;;;6.55;3.80;;;20.60;99.90;;;;;;5089470;28;20238;-51
2022/08/10 05:04:20;;;;;;;4.45;4.03;;;21.00;99.90;;;;;;5088881;28;20219;-51
2022/08/10 05:07:07;;;;;;;4.60;3.35;;;21.30;99.90;;;;;;5089825;28;20204;-50
2022/08/10 05:09:36;;;;;;;5.10;3.63;;;21.60;99.90;;;;;;5088902;28;20244;-50
2022/08/10 05:12:24;;;;;;;7.53;3.70;;;21.90;99.90;;;;;;5089485;28;20298;-50
2022/08/10 05:14:53;;;;;;;5.95;4.10;;;22.20;99.60;;;;;;5089288;28;20236;-51
2022/08/10 05:17:22;;;;;;;4.25;3.50;;;22.40;99.60;;;;;;5082964;28;20669;-51
2022/08/10 05:19:50;;;;;;;4.20;3.60;;;22.60;99.00;;;;;;5081533;28;20725;-52
2022/08/10 05:22:33;;;;;;;3.53;3.22;;;22.80;99.00;;;;;;5078566;28;20241;-51
2022/08/10 05:25:04;;;;;;;5.43;3.53;;;23.20;98.40;;;;;;5088261;28;20220;-51
2022/08/10 05:27:33;;;;;;;5.93;3.72;;;23.30;97.80;;;;;;5088514;28;20241;-51
2022/08/10 05:30:02;;;;;;;4.43;3.75;;;23.30;98.10;;;;;;5089148;28;20231;-50
2022/08/10 05:32:31;;;;;;;6.20;3.20;;;23.10;98.10;;;;;;5087516;28;20712;-51
2022/08/10 05:35:19;;;;;;;7.05;3.10;;;23.00;97.80;;;;;;5089112;28;20288;-52
2022/08/10 05:37:48;;;;;;;4.40;3.38;;;22.80;97.70;;;;;;5088610;28;20249;-51
2022/08/10 05:40:38;;;;;;;6.07;3.13;;;22.90;98.20;;;;;;5086414;28;20315;-51
2022/08/10 05:43:07;;;;;;;3.15;2.80;;;23.00;97.50;;;;;;5080627;28;20227;-51
2022/08/10 05:45:35;;;;;;;4.35;3.38;;;22.90;96.90;;;;;;5092396;28;20618;-51
2022/08/10 05:48:23;;;;;;;3.88;3.58;;;22.40;97.00;;;;;;5092889;28;20292;-51
2022/08/10 05:51:12;;;;;;;3.97;3.58;;;22.10;98.10;;;;;;5092945;28;20226;-50
2022/08/10 05:53:40;;;;;;;4.57;3.25;;;21.80;98.40;;;;;;5093073;28;20742;-52
2022/08/10 05:56:32;;;;;;;8.40;3.75;;;21.60;99.00;;;;;;5101941;28;20219;-50
2022/08/10 05:59:22;;;;;;;4.32;3.17;;;21.40;99.00;;;;;;5112905;28;20306;-51
2022/08/10 06:02:13;;;;;;;5.88;3.17;;;21.40;99.00;;;;;;5112434;28;20292;-51
2022/08/10 06:05:06;;;;;;;3.63;3.10;;;21.60;99.20;;;;;;5112873;28;20237;-51
2022/08/10 06:07:38;;;;;;;4.45;3.13;;;21.80;98.70;;;;;;5112635;28;20207;-51
2022/08/10 06:10:11;;;;;;;6.40;3.40;;;21.90;98.30;;;;;;5112139;28;20239;-52
2022/08/10 06:12:40;;;;;;;4.03;3.20;;;21.90;98.30;;;;;;5112865;28;20212;-51
2022/08/10 06:15:23;;;;;;;5.38;3.13;;;22.50;97.60;;;;;;5112925;28;20208;-52
2022/08/10 06:18:14;;;;;;;3.95;2.78;;;22.80;97.30;;;;;;5111686;28;20204;-52
2022/08/10 06:20:43;;;;;;;6.20;3.13;;;22.70;97.20;;;;;;5110372;28;20234;-51
2022/08/10 06:23:12;;;;;;;2.90;2.60;;;22.80;96.70;;;;;;5102348;28;20730;-51
2022/08/10 06:25:40;;;;;;;7.15;2.85;;;23.30;97.30;;;;;;5110155;28;20227;-51
2022/08/10 06:28:33;;;;;;;5.15;2.70;;;24.10;95.90;;;;;;5102428;28;20291;-51
2022/08/10 06:31:04;;;;;;;2.95;2.70;;;24.60;94.80;;;;;;5111350;28;20220;-52
2022/08/10 06:33:35;;;;;;;3.15;2.85;;;25.10;94.10;;;;;;5101759;28;20208;-52
2022/08/10 06:36:05;;;;;;;3.50;2.80;;;25.40;93.40;;;;;;5110660;28;20629;-52
2022/08/10 06:38:34;;;;;;;4.72;2.88;;;25.50;93.20;;;;;;5112370;28;20222;-51
2022/08/10 06:41:07;;;;;;;4.90;3.05;;;25.60;93.10;;;;;;5100371;28;20274;-52
2022/08/10 06:43:42;;;;;;;5.43;3.17;;;25.90;92.80;;;;;;5084586;28;20277;-52
2022/08/10 06:46:15;;;;;;;3.85;2.90;;;26.10;91.40;;;;;;5075227;28;20717;-52
2022/08/10 06:48:50;;;;;;;3.95;3.30;;;26.30;91.30;;;;;;5084525;28;20622;-52
2022/08/10 06:51:24;;;;;;;4.68;2.65;;;26.60;91.00;;;;;;5102670;28;20230;-52
2022/08/10 06:53:55;;;;;;;5.10;3.05;;;26.80;90.90;;;;;;5100933;28;20219;-50
2022/08/10 06:56:25;;;;;;;5.53;2.90;;;27.00;90.70;;;;;;5100345;28;20549;-51
2022/08/10 06:59:16;;;;;;;5.53;3.08;;;27.30;90.10;;;;;;5111171;28;20211;-51
2022/08/10 07:01:51;;;;;;;3.08;2.63;;;27.20;89.90;;;;;;5111425;28;20211;-52
2022/08/10 07:04:25;;;;;;;2.97;2.75;;;27.40;88.20;;;;;;5111840;28;20199;-52
2022/08/10 07:07:04;;;;;;;3.00;2.70;;;27.60;88.50;;;;;;5106743;28;20312;-52
2022/08/10 07:09:34;;;;;;;3.75;2.78;;;27.70;88.20;;;;;;5111287;28;20261;-52
2022/08/10 07:12:05;;;;;;;3.95;2.72;;;27.90;87.60;;;;;;5111172;28;20211;-51
2022/08/10 07:14:40;;;;;;;4.70;3.00;;;28.00;86.50;;;;;;5111721;28;20294;-51
2022/08/10 07:17:12;;;;;;;3.00;2.72;;;27.90;86.00;;;;;;5111783;28;20199;-51
2022/08/10 07:19:46;;;;;;;4.95;3.03;;;27.90;87.10;;;;;;5100959;28;20230;-51
2022/08/10 07:22:21;;;;;;;5.05;3.22;;;28.00;85.40;;;;;;5111480;28;20728;-51
2022/08/10 07:25:11;;;;;;;3.78;2.80;;;28.10;84.80;;;;;;5098509;28;20675;-51
2022/08/10 07:27:41;;;;;;;4.05;2.90;;;28.00;83.80;;;;;;5107837;28;20212;-52
2022/08/10 07:30:31;;;;;;;7.22;3.22;;;27.90;85.00;;;;;;5086124;28;20595;-51
2022/08/10 07:33:01;;;;;;;3.08;2.75;;;28.00;86.00;;;;;;5100998;28;20249;-51
2022/08/10 07:35:31;;;;;;;3.83;2.78;;;28.10;85.00;;;;;;5110926;28;20207;-51
2022/08/10 07:38:13;;;;;;;5.65;3.15;;;28.30;82.90;;;;;;5111220;28;20204;-51
2022/08/10 07:40:43;;;;;;;3.15;2.80;;;28.30;84.50;;;;;;5104946;28;20231;-51
2022/08/10 07:43:13;;;;;;;4.50;2.90;;;28.40;83.00;;;;;;5079253;28;20200;-51
2022/08/10 07:45:42;;;;;;;3.25;2.95;;;28.60;82.60;;;;;;5090462;28;20224;-51
2022/08/10 07:48:15;;;;;;;4.97;3.08;;;28.40;82.80;;;;;;5090686;28;20261;-52
2022/08/10 07:50:45;;;;;;;6.20;2.80;;;28.50;83.00;;;;;;5090405;28;20260;-51
2022/08/10 07:53:17;;;;;;;5.18;3.20;;;28.60;83.50;;;;;;5090313;28;20204;-51
2022/08/10 07:55:47;;;;;;;3.80;3.00;;;28.60;82.30;;;;;;5089600;28;20207;-52
2022/08/10 07:58:39;;;;;;;3.92;2.78;;;28.40;81.00;;;;;;5090794;28;20269;-52
2022/08/10 08:01:22;;;;;;;4.90;3.03;;;28.30;82.00;;;;;;5090311;28;20303;-51
2022/08/10 08:03:52;;;;;;;3.80;3.05;;;28.50;82.60;;;;;;5109766;28;20689;-51
2022/08/10 08:06:40;;;;;;;4.72;3.00;;;28.70;81.70;;;;;;5110967;28;20230;-51
2022/08/10 08:09:09;;;;;;;4.32;2.90;;;28.80;82.40;;;;;;5109686;28;20221;-51
2022/08/10 08:11:39;;;;;;;3.30;2.80;;;28.60;83.50;;;;;;5110689;28;20306;-51
2022/08/10 08:14:08;;;;;;;3.33;2.80;;;28.40;83.00;;;;;;5110000;28;20241;-51
2022/08/10 08:16:42;;;;;;;7.30;3.30;;;28.30;81.80;;;;;;5110007;28;20253;-51
2022/08/10 08:19:11;;;;;;;5.50;3.20;;;28.20;82.10;;;;;;5100921;28;20208;-52
2022/08/10 08:22:01;;;;;;;6.05;3.30;;;28.00;82.60;;;;;;5108730;28;20256;-51
2022/08/10 08:24:50;;;;;;;3.45;3.15;;;27.90;81.90;;;;;;5109908;28;20235;-51
2022/08/10 08:27:20;;;;;;;5.95;3.60;;;27.90;81.90;;;;;;5081320;28;20302;-51
2022/08/10 08:29:50;;;;;;;4.80;3.10;;;27.80;81.50;;;;;;5102571;28;20584;-51
2022/08/10 08:32:22;;;;;;;8.48;3.40;;;27.80;80.40;;;;;;5101515;28;20281;-51
2022/08/10 08:34:55;;;;;;;5.05;2.88;;;27.80;80.90;;;;;;5093910;28;20699;-51
2022/08/10 08:37:26;;;;;;;4.97;3.10;;;27.80;81.50;;;;;;5110846;28;20211;-51
2022/08/10 08:40:18;;;;;;;3.58;3.13;;;27.70;81.70;;;;;;5110082;28;20751;-52
2022/08/10 08:43:09;;;;;;;7.22;3.70;;;27.80;80.70;;;;;;5075019;28;20254;-51
2022/08/10 08:45:48;;;;;;;7.57;3.47;;;27.80;83.70;;;;;;5089424;28;20677;-51
2022/08/10 08:49:06;;;;;;;6.47;3.17;;;27.80;82.20;;;;;;5089023;28;20249;-52
2022/08/10 08:51:43;;;;;;;5.72;3.60;;;27.80;81.10;;;;;;5077849;28;20211;-51
2022/08/10 08:54:45;;;;;;;5.95;3.40;;;27.80;80.50;;;;;;5088706;28;20291;-51
2022/08/10 08:57:23;;;;;;;5.65;3.40;;;27.80;79.50;;;;;;5089646;28;20673;-52
2022/08/10 09:00:18;;;;;;;6.82;3.28;;;27.80;79.40;;;;;;5077791;28;20756;-52
2022/08/10 09:03:10;;;;;;;5.22;3.85;;;27.70;80.00;;;;;;5089245;28;20215;-51
2022/08/10 09:05:50;;;;;;;9.32;3.58;;;27.70;80.00;;;;;;5081949;28;20204;-52
2022/08/10 09:09:01;;;;;;;5.22;4.03;;;27.70;79.40;;;;;;5086454;28;20287;-51
2022/08/10 09:11:45;;;;;;;5.65;4.53;;;27.60;79.80;;;;;;5088404;28;20770;-51
2022/08/10 09:14:21;;;;;;;4.82;3.40;;;27.60;79.20;;;;;;5088670;28;20204;-51
2022/08/10 09:16:58;;;;;;;6.47;3.60;;;27.60;81.10;;;;;;5090997;28;20661;-51
2022/08/10 09:19:33;;;;;;;6.47;3.63;;;27.60;79.00;;;;;;5094641;28;20763;-51
2022/08/10 09:22:16;;;;;;;3.88;3.40;;;27.60;78.40;;;;;;5092635;28;20824;-51
2022/08/10 09:24:54;;;;;;;5.13;3.42;;;27.40;79.40;;;;;;5092789;28;20754;-51
2022/08/10 09:27:25;;;;;;;17.98;4.50;;;27.50;80.10;;;;;;5082778;28;20231;-52
2022/08/10 09:29:55;;;;;;;5.35;3.40;;;27.60;80.40;;;;;;5088087;28;20868;-53
2022/08/10 09:32:37;;;;;;;6.03;3.67;;;27.60;79.00;;;;;;5086554;28;20208;-52
2022/08/10 09:35:31;;;;;;;6.28;3.80;;;27.60;77.60;;;;;;5092524;28;20291;-52
2022/08/10 09:38:31;;;;;;;8.50;3.70;;;27.60;78.10;;;;;;5088006;28;20219;-52
2022/08/10 09:41:09;;;;;;;6.38;3.78;;;27.60;78.10;;;;;;5087356;28;20266;-52
2022/08/10 09:43:51;;;;;;;4.32;3.78;;;27.70;77.00;;;;;;5086050;28;20207;-51
2022/08/10 09:46:41;;;;;;;4.70;3.45;;;27.70;78.90;;;;;;5092183;28;20586;-50
2022/08/10 09:49:19;;;;;;;4.05;3.60;;;27.70;78.40;;;;;;5089280;28;20231;-52
2022/08/10 09:52:12;;;;;;;5.63;3.70;;;27.60;77.80;;;;;;5092518;28;20287;-52
2022/08/10 09:54:54;;;;;;;4.95;3.70;;;27.50;76.90;;;;;;5092081;28;20654;-51
2022/08/10 09:57:31;;;;;;;5.80;3.75;;;27.50;77.00;;;;;;5092546;28;20273;-52
2022/08/10 10:00:17;;;;;;;6.90;3.88;;;27.50;76.80;;;;;;5074438;28;20741;-51
2022/08/10 10:02:57;;;;;;;5.43;3.80;;;27.50;78.90;;;;;;5088554;28;20208;-52
2022/08/10 10:05:34;;;;;;;5.65;3.80;;;27.50;77.00;;;;;;5082687;28;20673;-52
2022/08/10 10:08:10;;;;;;;6.20;3.92;;;27.60;77.80;;;;;;5091339;28;20223;-52
2022/08/10 10:10:53;;;;;;;6.70;3.53;;;27.60;77.00;;;;;;5089227;28;20908;-52
2022/08/10 10:13:31;;;;;;;5.63;3.35;;;27.60;76.50;;;;;;5088599;28;20215;-51
2022/08/10 10:16:52;;;;;;;4.15;3.75;;;27.60;78.40;;;;;;5091099;28;20349;-52
2022/08/10 10:19:34;;;;;;;6.78;3.90;;;27.70;77.30;;;;;;5091269;28;20205;-52
2022/08/10 10:22:25;;;;;;;4.22;3.15;;;27.60;77.70;;;;;;5091792;28;20246;-52
2022/08/10 10:24:59;;;;;;;4.88;3.70;;;27.60;77.30;;;;;;5091080;28;20222;-52
2022/08/10 10:27:39;;;;;;;5.20;3.30;;;27.50;77.40;;;;;;5090654;28;20228;-52
2022/08/10 10:30:10;;;;;;;5.13;3.78;;;27.60;77.20;;;;;;5091778;28;20954;-52
2022/08/10 10:32:58;;;;;;;4.25;3.42;;;27.60;77.60;;;;;;5090833;28;20212;-52
2022/08/10 10:35:33;;;;;;;4.68;3.70;;;27.60;80.40;;;;;;5090790;28;20208;-52
2022/08/10 10:38:03;;;;;;;4.82;3.20;;;27.70;76.80;;;;;;5091700;28;20208;-52
2022/08/10 10:40:42;;;;;;;4.47;3.00;;;27.70;76.30;;;;;;5089369;28;20231;-51
2022/08/10 10:43:29;;;;;;;3.88;3.47;;;27.70;77.50;;;;;;5080765;28;20616;-52
2022/08/10 10:46:06;;;;;;;5.55;2.95;;;27.60;76.50;;;;;;5090676;28;20673;-52
2022/08/10 10:48:41;;;;;;;5.45;3.28;;;27.60;73.90;;;;;;5091111;28;20277;-52
2022/08/10 10:51:16;;;;;;;4.25;3.30;;;27.50;75.00;;;;;;5091539;28;20285;-52
2022/08/10 10:53:56;;;;;;;4.15;3.50;;;27.60;75.50;;;;;;5091153;28;20204;-52
2022/08/10 10:56:30;;;;;;;6.85;3.30;;;27.60;74.60;;;;;;5089742;28;20276;-51
2022/08/10 10:59:16;;;;;;;3.95;3.53;;;27.60;75.40;;;;;;5091153;28;20281;-52
2022/08/10 11:02:19;;;;;;;4.32;3.60;;;27.60;75.20;;;;;;5081382;28;20294;-51
2022/08/10 11:04:57;;;;;;;4.68;3.47;;;27.60;75.70;;;;;;5089833;28;20208;-51
2022/08/10 11:07:34;;;;;;;4.32;3.15;;;27.70;74.60;;;;;;5083356;28;20726;-51
2022/08/10 11:10:06;;;;;;;6.03;3.45;;;27.80;75.50;;;;;;5090952;28;20301;-51
2022/08/10 11:13:04;;;;;;;6.38;2.72;;;27.60;74.00;;;;;;5091144;28;20290;-52
2022/08/10 11:16:01;;;;;;;4.90;2.90;;;27.70;71.40;;;;;;5090965;28;20314;-52
2022/08/10 11:18:48;;;;;;;8.68;3.35;;;27.70;70.90;;;;;;5097634;28;20204;-52
2022/08/10 11:21:27;;;;;;;5.25;3.38;;;27.70;74.90;;;;;;5097639;28;20231;-52
2022/08/10 11:24:09;;;;;;;5.32;2.78;;;27.70;75.00;;;;;;5092256;28;20257;-51
2022/08/10 11:27:05;;;;;;;5.85;3.40;;;27.70;75.30;;;;;;5103012;28;20620;-52
2022/08/10 11:29:38;;;;;;;5.53;3.50;;;27.80;76.30;;;;;;5073036;28;20243;-53
2022/08/10 11:32:17;;;;;;;4.38;3.17;;;27.70;73.70;;;;;;5083474;28;20605;-52
2022/08/10 11:34:56;;;;;;;3.08;2.80;;;27.70;72.90;;;;;;5089528;28;20710;-53
2022/08/10 11:37:49;;;;;;;3.88;3.15;;;27.70;73.70;;;;;;5110761;28;20200;-52
2022/08/10 11:40:44;;;;;;;4.25;3.47;;;27.70;74.00;;;;;;5109717;28;20323;-52
2022/08/10 11:43:20;;;;;;;4.97;3.10;;;27.70;74.00;;;;;;5110957;28;20199;-52
2022/08/10 11:46:02;;;;;;;4.25;2.88;;;27.70;73.30;;;;;;5102623;28;20200;-52
2022/08/10 11:48:41;;;;;;;4.07;3.08;;;27.70;72.50;;;;;;5086418;28;20621;-52
2022/08/10 11:51:29;;;;;;;3.83;3.40;;;27.80;75.10;;;;;;5110802;28;20284;-52
2022/08/10 11:54:03;;;;;;;4.07;3.45;;;27.90;77.20;;;;;;5110830;28;20331;-52
2022/08/10 11:56:44;;;;;;;4.47;3.80;;;27.80;77.00;;;;;;5107665;28;20290;-52
2022/08/10 12:01:59;;;;;;;6.30;3.13;;;27.90;75.60;;;;;;5110559;28;20196;-52
2022/08/10 12:04:30;;;;;;;3.55;3.20;;;27.80;76.60;;;;;;5110740;28;20212;-52
2022/08/10 12:06:59;;;;;;;3.28;2.97;;;27.80;75.80;;;;;;5110421;28;20196;-52
2022/08/10 12:09:29;;;;;;;7.03;3.45;;;27.90;76.20;;;;;;5110482;28;20231;-51
2022/08/10 12:12:18;;;;;;;6.57;3.30;;;28.00;75.70;;;;;;5110983;28;20286;-50
2022/08/10 12:14:56;;;;;;;6.68;3.55;;;28.00;74.80;;;;;;5110766;28;20256;-52
2022/08/10 12:17:30;;;;;;;3.78;3.10;;;28.10;75.10;;;;;;5110224;28;20642;-51
2022/08/10 12:20:06;;;;;;;4.93;3.22;;;28.10;75.20;;;;;;5107883;28;20700;-52
2022/08/10 12:22:40;;;;;;;3.63;3.10;;;28.10;76.00;;;;;;5090569;28;20630;-52
2022/08/10 12:25:14;;;;;;;3.33;2.90;;;28.10;74.60;;;;;;5103515;28;20207;-52
2022/08/10 12:28:09;;;;;;;6.13;3.25;;;28.10;73.70;;;;;;5104026;28;20765;-52
2022/08/10 12:30:45;;;;;;;6.32;3.10;;;27.90;73.10;;;;;;5095734;28;20232;-51
2022/08/10 12:33:20;;;;;;;4.20;3.03;;;27.90;72.50;;;;;;5103216;28;20253;-51
2022/08/10 12:36:02;;;;;;;4.60;3.03;;;27.80;72.30;;;;;;5107620;28;20199;-52
2022/08/10 12:38:58;;;;;;;6.90;3.22;;;27.80;73.20;;;;;;5109891;28;20206;-52
2022/08/10 12:41:30;;;;;;;3.60;3.13;;;27.70;71.20;;;;;;5109904;28;20723;-52
2022/08/10 12:44:15;;;;;;;6.70;3.25;;;27.70;70.70;;;;;;5110148;28;20252;-51
2022/08/10 12:46:53;;;;;;;6.07;3.25;;;27.80;72.00;;;;;;5109915;28;20260;-52
2022/08/10 12:49:28;;;;;;;6.47;2.90;;;27.90;71.50;;;;;;5109722;28;20977;-52
2022/08/10 12:52:04;;;;;;;7.85;3.25;;;27.90;72.30;;;;;;5109530;28;20199;-52
2022/08/10 12:54:36;;;;;;;6.32;3.10;;;28.00;72.70;;;;;;5106450;28;20264;-51
2022/08/10 12:57:09;;;;;;;4.85;2.95;;;28.00;71.50;;;;;;5100354;28;20330;-51
2022/08/10 12:59:43;;;;;;;3.20;2.90;;;27.90;71.20;;;;;;5109416;28;20252;-51
2022/08/10 13:02:18;;;;;;;3.63;3.13;;;27.90;72.00;;;;;;5109486;28;20222;-52
2022/08/10 13:04:50;;;;;;;3.13;2.83;;;27.90;70.50;;;;;;5109097;28;20199;-52
2022/08/10 13:07:25;;;;;;;3.53;2.72;;;27.90;68.80;;;;;;5109794;28;20623;-52
2022/08/10 13:10:16;;;;;;;3.92;2.72;;;27.90;68.30;;;;;;5109035;28;21028;-52
2022/08/10 13:12:46;;;;;;;4.30;2.63;;;28.00;69.80;;;;;;5098042;28;20211;-51
2022/08/10 13:15:21;;;;;;;4.07;3.05;;;27.90;67.70;;;;;;5109193;28;20256;-52
2022/08/10 13:18:11;;;;;;;3.88;2.95;;;27.90;68.20;;;;;;5108438;28;20214;-52
2022/08/10 13:20:50;;;;;;;4.75;3.30;;;27.90;69.50;;;;;;5098755;28;20241;-51
2022/08/10 13:23:25;;;;;;;5.93;2.83;;;28.00;70.30;;;;;;5109367;28;20427;-51
2022/08/10 13:25:56;;;;;;;5.03;3.15;;;28.00;69.60;;;;;;5109203;28;20687;-52
2022/08/10 13:28:33;;;;;;;3.75;2.58;;;28.00;70.00;;;;;;5099743;28;20228;-51
2022/08/10 13:31:11;;;;;;;4.40;2.88;;;27.90;69.40;;;;;;5092003;28;20572;-51
2022/08/10 13:33:48;;;;;;;3.20;2.85;;;28.00;71.20;;;;;;5097514;28;20207;-51
2022/08/10 13:36:38;;;;;;;4.57;2.95;;;27.90;69.60;;;;;;5108707;28;20642;-51
2022/08/10 13:39:09;;;;;;;4.13;3.45;;;28.00;70.10;;;;;;5108856;28;20200;-51
2022/08/10 13:41:40;;;;;;;4.32;3.03;;;28.00;70.10;;;;;;5108119;28;20210;-51
2022/08/10 13:44:11;;;;;;;5.50;3.45;;;28.10;70.60;;;;;;5109242;28;20212;-51
2022/08/10 13:46:41;;;;;;;5.97;3.10;;;28.00;70.40;;;;;;5108512;28;20212;-51